Lawndale, California
Current Conditions -  °F | °C
As of 1:53 PM on Saturday 25 Oct 2014 (Local Time) from KHHR Reporting Station
Scattered Clouds Scattered Clouds  
Wind Chill: 76°   Ceiling: Unl
Heat Index: 76°   Visibility: 10mi
Dew Point: 55°   Wind: 6mph
Humidity: 48%   Direction: 290°WNW
Pressure: 30.02"   Gusts: NA
Location:  33.9°N, 118.35°W
Report Text: KHHR 252053Z 29005KT 10SM SCT100 24/13 A3002 RMK AO2 SLP166 T02440128 58013
Loading
Personal Weather Stations






























Interactive Weather Map
Tropical Storm Tracking
New forecast layout! Learn more

10-Day Weather Forecast

Advertisements
Track Severe Weather on mobile